createdAt,value
2016-11-03T00:00:43.535Z,23.84
2016-11-03T00:01:56.660Z,23.84
2016-11-03T00:03:09.139Z,23.86
2016-11-03T00:04:22.727Z,23.88
2016-11-03T00:05:35.782Z,23.89
2016-11-03T00:06:49.375Z,23.92
2016-11-03T00:08:01.972Z,23.92
2016-11-03T00:09:15.049Z,23.85
2016-11-03T00:10:28.662Z,23.85
2016-11-03T00:11:41.196Z,23.71
2016-11-03T00:12:53.733Z,23.64
2016-11-03T00:14:07.235Z,23.63
2016-11-03T00:15:20.262Z,23.63
2016-11-03T00:16:33.386Z,23.55
2016-11-03T00:17:46.508Z,23.48
2016-11-03T00:18:59.011Z,23.48
2016-11-03T00:20:12.560Z,23.41
2016-11-03T00:21:26.157Z,23.34
2016-11-03T00:22:39.787Z,23.44
2016-11-03T00:23:52.349Z,23.28
2016-11-03T00:25:06.022Z,23.39
2016-11-03T00:26:18.028Z,23.39
2016-11-03T00:27:30.503Z,23.41
2016-11-03T00:28:43.028Z,23.41
2016-11-03T00:29:55.644Z,23.34
2016-11-03T00:31:08.764Z,23.46
2016-11-03T00:32:21.863Z,23.39
2016-11-03T00:33:34.979Z,23.49
2016-11-03T00:34:47.595Z,23.45
2016-11-03T00:36:00.618Z,23.46
2016-11-03T00:37:13.783Z,23.39
2016-11-03T00:38:27.421Z,23.39
2016-11-03T00:39:40.536Z,23.36
2016-11-03T00:40:53.065Z,23.41
2016-11-03T00:42:06.152Z,23.33
2016-11-03T00:43:19.178Z,23.29
2016-11-03T00:44:31.681Z,23.29
2016-11-03T00:45:44.693Z,23.28
2016-11-03T00:46:57.752Z,23.26
2016-11-03T00:48:10.260Z,23.31
2016-11-03T00:49:23.844Z,23.17
2016-11-03T00:50:36.376Z,23.14
2016-11-03T00:51:50.028Z,23.28
2016-11-03T00:53:03.103Z,23.21
2016-11-03T00:54:16.639Z,23.14
2016-11-03T00:55:29.234Z,23.14
2016-11-03T00:56:41.801Z,23.11
2016-11-03T00:57:54.368Z,23.15
2016-11-03T00:59:06.929Z,23.15
2016-11-03T01:00:19.442Z,23.08
2016-11-03T01:01:33.028Z,23.13
2016-11-03T01:02:46.627Z,23.22
2016-11-03T01:03:59.713Z,23.23
2016-11-03T01:05:11.199Z,23.25
2016-11-03T01:06:23.741Z,23.25
2016-11-03T01:07:37.389Z,23.18
2016-11-03T01:08:50.528Z,23.15
2016-11-03T01:10:03.648Z,23.13
2016-11-03T01:11:16.760Z,23.26
2016-11-03T01:12:29.888Z,23.17
2016-11-03T01:13:43.486Z,23.26
2016-11-03T01:14:54.955Z,23.34
2016-11-03T01:16:06.961Z,23.26
2016-11-03T01:17:19.985Z,23.29
2016-11-03T01:18:33.677Z,23.33
2016-11-03T01:19:45.727Z,23.28
2016-11-03T01:20:57.738Z,23.28
2016-11-03T01:22:10.871Z,23.23
2016-11-03T01:23:23.980Z,23.15
2016-11-03T01:24:37.029Z,23.29
2016-11-03T01:25:50.671Z,23.29
2016-11-03T01:27:04.231Z,23.25
2016-11-03T01:28:17.817Z,23.26
2016-11-03T01:29:31.389Z,23.29
2016-11-03T01:30:44.000Z,23.14
2016-11-03T01:31:57.585Z,23.26
2016-11-03T01:33:10.670Z,23.21
2016-11-03T01:34:23.728Z,23.23
2016-11-03T01:35:36.811Z,23.21
2016-11-03T01:36:49.849Z,23.26
2016-11-03T01:38:03.465Z,23.26
2016-11-03T01:39:16.497Z,23.29
2016-11-03T01:40:29.521Z,23.25
2016-11-03T01:41:43.034Z,23.26
2016-11-03T01:42:56.671Z,23.26
2016-11-03T01:44:09.223Z,23.26
2016-11-03T01:45:22.279Z,23.25
2016-11-03T01:46:34.811Z,23.23
2016-11-03T01:47:46.839Z,23.26
2016-11-03T01:48:59.908Z,23.31
2016-11-03T01:50:13.001Z,23.14
2016-11-03T01:51:25.469Z,23.15
2016-11-03T01:52:39.111Z,23.21
2016-11-03T01:53:52.154Z,23.14
2016-11-03T01:55:05.710Z,23.21
2016-11-03T01:56:18.727Z,23.1
2016-11-03T01:57:32.342Z,23.23
2016-11-03T01:58:45.922Z,23.07
2016-11-03T01:59:58.399Z,23.11
2016-11-03T02:01:11.456Z,23.1
2016-11-03T02:02:23.459Z,23.18
2016-11-03T02:03:36.450Z,23.11
2016-11-03T02:04:49.002Z,23.14
2016-11-03T02:06:02.629Z,23.14
2016-11-03T02:07:15.163Z,23.14
2016-11-03T02:08:28.810Z,23.14
2016-11-03T02:09:40.755Z,23.22
2016-11-03T02:10:54.380Z,23.17
2016-11-03T02:12:07.953Z,23.07
2016-11-03T02:13:21.458Z,23.1
2016-11-03T02:14:34.560Z,23.08
2016-11-03T02:15:47.137Z,23.14
2016-11-03T02:16:59.650Z,23.18
2016-11-03T02:18:12.701Z,23.06
2016-11-03T02:19:25.294Z,23.1
2016-11-03T02:20:38.942Z,23.08
2016-11-03T02:21:52.015Z,23.04
2016-11-03T02:23:04.567Z,23.04
2016-11-03T02:24:18.145Z,22.99
2016-11-03T02:25:31.243Z,23.07
2016-11-03T02:26:44.280Z,23.04
2016-11-03T02:27:57.300Z,23.06
2016-11-03T02:29:10.871Z,23.08
2016-11-03T02:30:22.862Z,23.04
2016-11-03T02:31:35.399Z,22.99
2016-11-03T02:32:48.539Z,22.95
2016-11-03T02:34:00.573Z,22.98
2016-11-03T02:35:14.201Z,23.1
2016-11-03T02:36:27.274Z,23.1
2016-11-03T02:37:40.384Z,23.08
2016-11-03T02:38:52.865Z,23.08
2016-11-03T02:40:06.519Z,23.11
2016-11-03T02:41:19.629Z,23.1
2016-11-03T02:42:32.178Z,23.04
2016-11-03T02:43:45.357Z,23.04
2016-11-03T02:44:57.887Z,22.95
2016-11-03T02:46:11.567Z,22.99
2016-11-03T02:47:24.664Z,22.95
2016-11-03T02:48:37.145Z,22.92
2016-11-03T02:49:50.226Z,22.89
2016-11-03T02:51:01.688Z,22.92
2016-11-03T02:52:15.229Z,22.96
2016-11-03T02:53:28.781Z,23.01
2016-11-03T02:54:42.353Z,22.96
2016-11-03T02:55:54.961Z,22.88
2016-11-03T02:57:08.527Z,22.91
2016-11-03T02:58:19.982Z,22.95
2016-11-03T02:59:33.529Z,22.93
2016-11-03T03:00:46.066Z,22.86
2016-11-03T03:01:59.202Z,22.85
2016-11-03T03:03:12.280Z,22.86
2016-11-03T03:04:25.861Z,22.81
2016-11-03T03:05:39.403Z,22.76
2016-11-03T03:06:51.877Z,22.76
2016-11-03T03:08:04.444Z,22.76
2016-11-03T03:09:17.008Z,22.59
2016-11-03T03:10:28.962Z,22.7
2016-11-03T03:11:42.037Z,22.73
2016-11-03T03:12:55.128Z,22.74
2016-11-03T03:14:08.230Z,22.71
2016-11-03T03:15:21.320Z,22.66
2016-11-03T03:16:34.328Z,22.67
2016-11-03T03:17:47.430Z,22.7
2016-11-03T03:18:59.960Z,22.76
2016-11-03T03:20:11.910Z,22.76
2016-11-03T03:21:23.906Z,22.83
2016-11-03T03:22:36.471Z,22.8
2016-11-03T03:23:50.106Z,22.73
2016-11-03T03:25:02.608Z,22.76
2016-11-03T03:26:13.555Z,22.73
2016-11-03T03:27:27.209Z,22.67
2016-11-03T03:28:40.392Z,22.74
2016-11-03T03:29:53.977Z,22.71
2016-11-03T03:31:06.612Z,22.67
2016-11-03T03:32:20.213Z,22.67
2016-11-03T03:33:32.777Z,22.64
2016-11-03T03:34:45.855Z,22.64
2016-11-03T03:35:58.908Z,22.68
2016-11-03T03:37:12.523Z,22.67
2016-11-03T03:38:25.058Z,22.66
2016-11-03T03:39:38.107Z,22.62
2016-11-03T03:40:51.139Z,22.67
2016-11-03T03:42:04.226Z,22.68
2016-11-03T03:43:17.346Z,22.55
2016-11-03T03:44:30.523Z,22.67
2016-11-03T03:45:44.094Z,22.67
2016-11-03T03:46:57.159Z,22.67
2016-11-03T03:48:10.705Z,22.61
2016-11-03T03:49:23.278Z,22.66
2016-11-03T03:50:35.791Z,22.62
2016-11-03T03:51:48.865Z,22.68
2016-11-03T03:53:01.905Z,22.73
2016-11-03T03:54:15.042Z,22.67
2016-11-03T03:55:28.084Z,22.67
2016-11-03T03:56:41.699Z,22.67
2016-11-03T03:57:54.208Z,22.73
2016-11-03T03:59:06.216Z,22.64
2016-11-03T04:00:18.217Z,22.7
2016-11-03T04:01:31.287Z,22.71
2016-11-03T04:02:44.364Z,22.66
2016-11-03T04:03:57.390Z,22.64
2016-11-03T04:05:09.967Z,22.73
2016-11-03T04:06:22.545Z,22.68
2016-11-03T04:07:35.592Z,22.73
2016-11-03T04:08:48.739Z,22.7
2016-11-03T04:10:02.375Z,22.64
2016-11-03T04:11:14.343Z,22.67
2016-11-03T04:12:26.942Z,22.7
2016-11-03T04:13:39.473Z,22.68
2016-11-03T04:14:52.563Z,22.7
2016-11-03T04:16:05.695Z,22.68
2016-11-03T04:17:19.232Z,22.68
2016-11-03T04:18:32.972Z,22.7
2016-11-03T04:19:46.659Z,22.68
2016-11-03T04:20:59.197Z,22.67
2016-11-03T04:22:12.229Z,22.67
2016-11-03T04:23:25.418Z,22.66
2016-11-03T04:24:38.976Z,22.66
2016-11-03T04:25:51.473Z,22.66
2016-11-03T04:27:04.519Z,22.55
2016-11-03T04:28:17.545Z,22.61
2016-11-03T04:29:30.092Z,22.56
2016-11-03T04:30:43.160Z,22.56
2016-11-03T04:31:55.202Z,22.53
2016-11-03T04:33:08.230Z,22.51
2016-11-03T04:34:21.275Z,22.51
2016-11-03T04:35:33.797Z,22.33
2016-11-03T04:36:47.333Z,22.34
2016-11-03T04:38:00.945Z,22.36
2016-11-03T04:39:14.037Z,22.33
2016-11-03T04:40:25.473Z,22.25
2016-11-03T04:41:38.032Z,22.3
2016-11-03T04:42:51.110Z,22.23
2016-11-03T04:44:04.212Z,22.21
2016-11-03T04:45:17.277Z,22.21
2016-11-03T04:46:30.366Z,22.33
2016-11-03T04:47:43.945Z,22.36
2016-11-03T04:48:56.932Z,22.3
2016-11-03T04:50:08.897Z,22.37
2016-11-03T04:51:21.934Z,22.34
2016-11-03T04:52:34.969Z,22.48
2016-11-03T04:53:47.583Z,22.41
2016-11-03T04:55:00.649Z,22.48
2016-11-03T04:56:13.194Z,22.48
2016-11-03T04:57:25.691Z,22.44
2016-11-03T04:58:38.765Z,22.53
2016-11-03T04:59:51.239Z,22.49
2016-11-03T05:01:04.298Z,22.48
2016-11-03T05:02:17.415Z,22.52
2016-11-03T05:03:29.964Z,22.48
2016-11-03T05:04:41.912Z,22.43
2016-11-03T05:05:54.979Z,22.46
2016-11-03T05:07:07.000Z,22.52
2016-11-03T05:08:20.054Z,22.44
2016-11-03T05:09:32.608Z,22.52
2016-11-03T05:10:45.648Z,22.37
2016-11-03T05:11:58.658Z,22.33
2016-11-03T05:13:11.201Z,22.31
2016-11-03T05:14:24.784Z,22.31
2016-11-03T05:15:37.848Z,22.33
2016-11-03T05:16:51.466Z,22.3
2016-11-03T05:18:04.535Z,22.36
2016-11-03T05:19:17.033Z,22.36
2016-11-03T05:20:29.068Z,22.36
2016-11-03T05:21:42.113Z,22.3
2016-11-03T05:22:54.078Z,22.34
2016-11-03T05:24:07.118Z,22.38
2016-11-03T05:25:19.669Z,22.31
2016-11-03T05:26:32.785Z,22.33
2016-11-03T05:27:45.855Z,22.3
2016-11-03T05:28:58.911Z,22.3
2016-11-03T05:30:11.522Z,22.33
2016-11-03T05:31:25.137Z,22.3
2016-11-03T05:32:38.142Z,22.34
2016-11-03T05:33:50.756Z,22.33
2016-11-03T05:35:03.300Z,22.34
2016-11-03T05:36:14.782Z,22.31
2016-11-03T05:37:27.824Z,22.34
2016-11-03T05:38:40.874Z,22.36
2016-11-03T05:39:54.439Z,22.3
2016-11-03T05:41:06.920Z,22.28
2016-11-03T05:42:19.945Z,22.3
2016-11-03T05:43:32.507Z,22.3
2016-11-03T05:44:46.079Z,22.34
2016-11-03T05:45:58.605Z,22.34
2016-11-03T05:47:11.663Z,22.37
2016-11-03T05:48:24.731Z,22.34
2016-11-03T05:49:37.746Z,22.33
2016-11-03T05:50:50.231Z,22.33
2016-11-03T05:52:02.744Z,22.25
2016-11-03T05:53:15.799Z,22.3
2016-11-03T05:54:28.877Z,22.18
2016-11-03T05:55:42.002Z,22.19
2016-11-03T05:56:54.009Z,22.21
2016-11-03T05:58:07.079Z,22.22
2016-11-03T05:59:20.674Z,22.16
2016-11-03T06:00:33.210Z,22.21
2016-11-03T06:01:45.225Z,22.31
2016-11-03T06:02:58.289Z,22.15
2016-11-03T06:04:11.402Z,22.21
2016-11-03T06:05:24.465Z,22.16
2016-11-03T06:06:36.998Z,22.15
2016-11-03T06:07:50.007Z,22.15
2016-11-03T06:09:02.015Z,22.22
2016-11-03T06:10:15.079Z,22.16
2016-11-03T06:11:27.541Z,22.18
2016-11-03T06:12:41.142Z,22.13
2016-11-03T06:13:54.152Z,22.12
2016-11-03T06:15:07.219Z,22.13
2016-11-03T06:16:20.865Z,22.18
2016-11-03T06:17:34.426Z,22.07
2016-11-03T06:18:46.978Z,22.09
2016-11-03T06:20:00.557Z,22.01
2016-11-03T06:21:14.165Z,22.03
2016-11-03T06:22:26.670Z,22.03
2016-11-03T06:23:40.234Z,22.03
2016-11-03T06:24:52.247Z,22.06
2016-11-03T06:26:05.760Z,22.03
2016-11-03T06:27:18.250Z,22.15
2016-11-03T06:28:30.236Z,22.03
2016-11-03T06:29:42.836Z,22.11
2016-11-03T06:30:55.928Z,22.06
2016-11-03T06:32:08.431Z,22.11
2016-11-03T06:33:21.480Z,22.11
2016-11-03T06:34:34.028Z,22.09
2016-11-03T06:35:47.641Z,22.15
2016-11-03T06:37:00.703Z,22.07
2016-11-03T06:38:14.295Z,22.21
2016-11-03T06:39:27.365Z,22.13
2016-11-03T06:40:40.489Z,22.16
2016-11-03T06:41:53.013Z,22.21
2016-11-03T06:43:06.128Z,22.18
2016-11-03T06:44:19.158Z,22.21
2016-11-03T06:45:32.748Z,22.23
2016-11-03T06:46:45.799Z,22.15
2016-11-03T06:47:59.387Z,22.18
2016-11-03T06:49:12.505Z,22.16
2016-11-03T06:50:25.543Z,22.15
2016-11-03T06:51:38.052Z,22.18
2016-11-03T06:52:51.638Z,22.21
2016-11-03T06:54:04.180Z,22.21
2016-11-03T06:55:17.286Z,22.21
2016-11-03T06:56:30.373Z,22.19
2016-11-03T06:57:43.894Z,22.16
2016-11-03T06:58:57.440Z,22.16
2016-11-03T07:00:09.966Z,22.16
2016-11-03T07:01:22.547Z,22.16
2016-11-03T07:02:36.069Z,22.16
2016-11-03T07:03:48.587Z,22.12
2016-11-03T07:05:01.179Z,22.13
2016-11-03T07:06:14.256Z,22.16
2016-11-03T07:07:27.832Z,22.16
2016-11-03T07:08:41.409Z,22.16
2016-11-03T07:09:55.024Z,22.15
2016-11-03T07:11:08.010Z,22.19
2016-11-03T07:12:20.108Z,22.16
2016-11-03T07:13:34.059Z,22.16
2016-11-03T07:14:47.170Z,22.21
2016-11-03T07:16:00.729Z,22.22
2016-11-03T07:17:13.276Z,22.18
2016-11-03T07:18:25.826Z,22.16
2016-11-03T07:19:38.394Z,22.21
2016-11-03T07:20:51.006Z,22.15
2016-11-03T07:22:04.695Z,22.21
2016-11-03T07:23:16.750Z,22.23
2016-11-03T07:24:29.274Z,22.09
2016-11-03T07:25:42.869Z,22.03
2016-11-03T07:26:55.900Z,22.06
2016-11-03T07:28:07.838Z,22.11
2016-11-03T07:29:20.980Z,22.11
2016-11-03T07:30:33.988Z,22.19
2016-11-03T07:31:46.997Z,22.16
2016-11-03T07:32:59.580Z,22.15
2016-11-03T07:34:12.620Z,22.27
2016-11-03T07:35:24.119Z,22.12
2016-11-03T07:36:37.133Z,22.16
2016-11-03T07:37:50.269Z,22.11
2016-11-03T07:39:01.693Z,22.04
2016-11-03T07:40:13.664Z,22.13
2016-11-03T07:41:26.791Z,22.04
2016-11-03T07:42:39.357Z,22.06
2016-11-03T07:43:50.818Z,22.03
2016-11-03T07:45:04.451Z,22.07
2016-11-03T07:46:17.530Z,21.97
2016-11-03T07:47:30.488Z,22
2016-11-03T07:48:43.514Z,22.03
2016-11-03T07:49:56.091Z,22.01
2016-11-03T07:51:09.664Z,22.11
2016-11-03T07:52:23.301Z,22.01
2016-11-03T07:53:35.854Z,22.19
2016-11-03T07:54:49.482Z,22.12
2016-11-03T07:56:03.083Z,22.22
2016-11-03T07:57:16.101Z,22.25
2016-11-03T07:58:29.758Z,22.21
2016-11-03T07:59:42.798Z,22.22
2016-11-03T08:00:56.388Z,22.22
2016-11-03T08:02:08.383Z,22.21
2016-11-03T08:03:21.480Z,22.25
2016-11-03T08:04:33.948Z,22.21
2016-11-03T08:05:46.468Z,22.21
2016-11-03T08:07:00.070Z,22.21
2016-11-03T08:08:13.171Z,22.21
2016-11-03T08:09:25.695Z,22.3
2016-11-03T08:10:38.771Z,22.3
2016-11-03T08:11:52.313Z,22.33
2016-11-03T08:13:04.854Z,22.21
2016-11-03T08:14:16.931Z,22.25
2016-11-03T08:15:29.991Z,22.16
2016-11-03T08:16:42.624Z,22.22
2016-11-03T08:17:55.684Z,22.21
2016-11-03T08:19:07.640Z,22.12
2016-11-03T08:20:20.159Z,22.16
2016-11-03T08:21:33.216Z,22.22
2016-11-03T08:22:46.316Z,22.21
2016-11-03T08:23:59.463Z,22.19
2016-11-03T08:25:11.951Z,22.22
2016-11-03T08:26:25.042Z,22.22
2016-11-03T08:27:37.579Z,22.18
2016-11-03T08:28:50.094Z,22.12
2016-11-03T08:30:02.596Z,22.15
2016-11-03T08:31:15.112Z,22.19
2016-11-03T08:32:27.634Z,22.22
2016-11-03T08:33:41.253Z,22.15
2016-11-03T08:34:54.320Z,22.22
2016-11-03T08:36:06.880Z,22.21
2016-11-03T08:37:19.979Z,22.16
2016-11-03T08:38:31.936Z,22.21
2016-11-03T08:39:44.454Z,22.16
2016-11-03T08:40:57.617Z,22.16
2016-11-03T08:42:10.660Z,22.18
2016-11-03T08:43:23.177Z,22.15
2016-11-03T08:44:35.963Z,22.12
2016-11-03T08:45:49.577Z,22.09
2016-11-03T08:47:02.595Z,22.06
2016-11-03T08:48:16.238Z,21.98
2016-11-03T08:49:29.823Z,21.93
2016-11-03T08:50:42.914Z,21.94
2016-11-03T08:51:55.978Z,21.94
2016-11-03T08:53:08.514Z,21.94
2016-11-03T08:54:22.091Z,21.93
2016-11-03T08:55:35.151Z,21.82
2016-11-03T08:56:48.258Z,21.91
2016-11-03T08:58:01.869Z,22.03
2016-11-03T08:59:14.342Z,21.94
2016-11-03T09:00:26.843Z,21.94
2016-11-03T09:01:40.464Z,21.97
2016-11-03T09:02:53.475Z,21.9
2016-11-03T09:04:07.113Z,21.96
2016-11-03T09:05:20.736Z,21.97
2016-11-03T09:06:33.775Z,22.01
2016-11-03T09:07:47.363Z,21.96
2016-11-03T09:09:00.520Z,21.9
2016-11-03T09:10:13.086Z,21.96
2016-11-03T09:11:25.600Z,22
2016-11-03T09:12:38.118Z,22.03
2016-11-03T09:13:51.174Z,22
2016-11-03T09:15:04.698Z,21.98
2016-11-03T09:16:17.699Z,21.9
2016-11-03T09:17:30.197Z,21.85
2016-11-03T09:18:43.778Z,21.9
2016-11-03T09:19:57.296Z,21.96
2016-11-03T09:21:10.838Z,21.93
2016-11-03T09:22:24.390Z,21.91
2016-11-03T09:23:37.434Z,21.9
2016-11-03T09:24:50.540Z,21.93
2016-11-03T09:26:04.150Z,21.91
2016-11-03T09:27:17.260Z,21.85
2016-11-03T09:28:29.780Z,21.85
2016-11-03T09:29:42.874Z,21.82
2016-11-03T09:30:56.520Z,21.85
2016-11-03T09:32:10.085Z,21.85
2016-11-03T09:33:23.120Z,21.97
2016-11-03T09:34:36.721Z,21.98
2016-11-03T09:35:50.341Z,21.9
2016-11-03T09:37:03.481Z,21.91
2016-11-03T09:38:17.101Z,21.8
2016-11-03T09:39:30.212Z,21.85
2016-11-03T09:40:43.308Z,21.93
2016-11-03T09:41:54.810Z,21.94
2016-11-03T09:43:08.439Z,21.97
2016-11-03T09:44:21.509Z,21.97
2016-11-03T09:45:33.475Z,21.93
2016-11-03T09:46:46.462Z,21.94
2016-11-03T09:47:58.514Z,21.97
2016-11-03T09:49:12.096Z,21.97
2016-11-03T09:50:25.708Z,21.97
2016-11-03T09:51:39.310Z,22
2016-11-03T09:52:52.884Z,22.01
2016-11-03T09:54:06.453Z,22
2016-11-03T09:55:20.088Z,21.96
2016-11-03T09:56:33.689Z,21.81
2016-11-03T09:57:47.230Z,21.53
2016-11-03T09:59:00.857Z,21.29
2016-11-03T10:00:14.506Z,21.11
2016-11-03T10:01:28.070Z,21.01
2016-11-03T10:02:41.159Z,21.01
2016-11-03T10:03:54.841Z,21.03
2016-11-03T10:05:08.607Z,21.13
2016-11-03T10:06:21.119Z,21.19
2016-11-03T10:07:34.190Z,21.14
2016-11-03T10:08:47.250Z,21.16
2016-11-03T10:10:00.291Z,21.25
2016-11-03T10:11:12.805Z,21.13
2016-11-03T10:12:26.406Z,21.13
2016-11-03T10:13:39.507Z,21.18
2016-11-03T10:14:52.047Z,21.14
2016-11-03T10:16:03.953Z,21.16
2016-11-03T10:17:17.026Z,21.13
2016-11-03T10:18:29.091Z,21.16
2016-11-03T10:19:41.649Z,21.1
2016-11-03T10:20:55.292Z,21.18
2016-11-03T10:22:07.792Z,21.18
2016-11-03T10:23:20.833Z,21.2
2016-11-03T10:24:32.777Z,21.18
2016-11-03T10:25:45.361Z,21.16
2016-11-03T10:26:57.922Z,21.19
2016-11-03T10:28:10.998Z,21.18
2016-11-03T10:29:24.051Z,21.25
2016-11-03T10:30:35.994Z,21.26
2016-11-03T10:31:49.169Z,21.28
2016-11-03T10:33:02.252Z,21.32
2016-11-03T10:34:15.789Z,21.35
2016-11-03T10:35:28.848Z,21.38
2016-11-03T10:36:42.409Z,21.45
2016-11-03T10:37:54.930Z,21.38
2016-11-03T10:39:06.932Z,21.3
2016-11-03T10:40:19.505Z,21.3
2016-11-03T10:41:31.499Z,21.23
2016-11-03T10:42:45.136Z,21.19
2016-11-03T10:43:57.660Z,21.26
2016-11-03T10:45:11.238Z,21.18
2016-11-03T10:46:24.310Z,21.25
2016-11-03T10:47:37.382Z,21.26
2016-11-03T10:48:49.918Z,21.26
2016-11-03T10:50:02.590Z,21.3
2016-11-03T10:51:16.158Z,21.28
2016-11-03T10:52:29.249Z,21.26
2016-11-03T10:53:42.857Z,21.28
2016-11-03T10:54:55.875Z,21.29
2016-11-03T10:56:09.513Z,21.28
2016-11-03T10:57:20.960Z,21.32
2016-11-03T10:58:34.023Z,21.26
2016-11-03T10:59:47.106Z,21.16
2016-11-03T11:00:59.600Z,21.2
2016-11-03T11:02:12.124Z,21.11
2016-11-03T11:03:25.224Z,21.28
2016-11-03T11:04:37.726Z,21.32
2016-11-03T11:05:50.272Z,21.32
2016-11-03T11:07:03.255Z,21.35
2016-11-03T11:08:16.343Z,21.19
2016-11-03T11:09:29.954Z,21.01
2016-11-03T11:10:43.054Z,20.9
2016-11-03T11:11:56.744Z,20.55
2016-11-03T11:13:09.751Z,20.41
2016-11-03T11:14:23.310Z,20.33
2016-11-03T11:15:36.343Z,20.41
2016-11-03T11:16:49.425Z,20.3
2016-11-03T11:18:02.529Z,20.36
2016-11-03T11:19:15.063Z,20.5
2016-11-03T11:20:28.652Z,20.44
2016-11-03T11:21:41.197Z,20.23
2016-11-03T11:22:53.664Z,20.25
2016-11-03T11:24:06.124Z,20.23
2016-11-03T11:25:19.182Z,20.11
2016-11-03T11:26:32.756Z,20.15
2016-11-03T11:27:45.811Z,20.17
2016-11-03T11:28:58.886Z,20.17
2016-11-03T11:30:11.409Z,20.11
2016-11-03T11:31:24.458Z,20.04
2016-11-03T11:32:37.490Z,19.97
2016-11-03T11:33:50.593Z,19.78
2016-11-03T11:35:03.618Z,19.63
2016-11-03T11:36:16.834Z,19.7
2016-11-03T11:37:30.477Z,19.68
2016-11-03T11:38:43.567Z,19.78
2016-11-03T11:39:57.179Z,19.82
2016-11-03T11:41:10.226Z,19.92
2016-11-03T11:42:23.330Z,19.82
2016-11-03T11:43:36.905Z,19.67
2016-11-03T11:44:50.492Z,19.56
2016-11-03T11:46:04.103Z,19.6
2016-11-03T11:47:16.166Z,19.59
2016-11-03T11:48:29.239Z,19.52
2016-11-03T11:49:42.252Z,19.44
2016-11-03T11:50:55.853Z,19.53
2016-11-03T11:52:08.963Z,19.53
2016-11-03T11:53:21.975Z,19.62
2016-11-03T11:54:34.983Z,19.59
2016-11-03T11:55:47.999Z,19.62
2016-11-03T11:57:00.967Z,19.56
2016-11-03T11:58:13.996Z,19.53
2016-11-03T11:59:27.115Z,19.44
2016-11-03T12:00:39.644Z,19.47
2016-11-03T12:01:53.207Z,19.57
2016-11-03T12:03:05.721Z,19.64
2016-11-03T12:04:19.256Z,19.63
2016-11-03T12:05:32.870Z,19.62
2016-11-03T12:06:45.986Z,19.7
2016-11-03T12:07:58.585Z,19.57
2016-11-03T12:09:12.139Z,19.62
2016-11-03T12:10:25.732Z,19.59
2016-11-03T12:11:38.830Z,19.59
2016-11-03T12:12:51.391Z,19.62
2016-11-03T12:14:03.917Z,19.7
2016-11-03T12:15:17.521Z,19.6
2016-11-03T12:16:31.064Z,19.71
2016-11-03T12:17:44.157Z,19.6
2016-11-03T12:18:57.247Z,19.52
2016-11-03T12:20:10.253Z,19.59
2016-11-03T12:21:23.901Z,19.45
2016-11-03T12:22:35.931Z,19.52
2016-11-03T12:23:49.005Z,19.49
2016-11-03T12:25:02.068Z,19.42
2016-11-03T12:26:15.195Z,19.34
2016-11-03T12:27:28.289Z,19.31
2016-11-03T12:28:41.896Z,19.32
2016-11-03T12:29:55.498Z,19.32
2016-11-03T12:31:08.512Z,19.32
2016-11-03T12:32:22.092Z,19.38
2016-11-03T12:33:34.596Z,19.35
2016-11-03T12:34:48.232Z,19.35
2016-11-03T12:36:01.314Z,19.37
2016-11-03T12:37:14.897Z,19.38
2016-11-03T12:38:27.881Z,19.41
2016-11-03T12:39:40.476Z,19.45
2016-11-03T12:40:53.497Z,19.42
2016-11-03T12:42:07.106Z,19.38
2016-11-03T12:43:20.119Z,19.47
2016-11-03T12:44:32.075Z,19.42
2016-11-03T12:45:45.101Z,19.39
2016-11-03T12:46:57.725Z,19.42
2016-11-03T12:48:10.725Z,19.42
2016-11-03T12:49:24.283Z,19.45
2016-11-03T12:50:37.353Z,19.5
2016-11-03T12:51:49.849Z,19.62
2016-11-03T12:53:01.773Z,19.59
2016-11-03T12:54:14.349Z,19.62
2016-11-03T12:55:27.932Z,19.56
2016-11-03T12:56:41.498Z,19.5
2016-11-03T12:57:55.084Z,19.53
2016-11-03T12:59:08.646Z,19.6
2016-11-03T13:00:21.211Z,19.75
2016-11-03T13:01:34.865Z,19.77
2016-11-03T13:02:47.943Z,19.81
2016-11-03T13:04:01.472Z,19.74
2016-11-03T13:05:13.531Z,19.82
2016-11-03T13:06:26.616Z,19.9
2016-11-03T13:07:40.171Z,19.99
2016-11-03T13:08:53.193Z,19.97
2016-11-03T13:10:06.742Z,19.92
2016-11-03T13:11:18.229Z,19.97
2016-11-03T13:12:30.741Z,19.99
2016-11-03T13:13:43.275Z,19.99
2016-11-03T13:14:55.883Z,20.07
2016-11-03T13:16:08.948Z,19.93
2016-11-03T13:17:22.014Z,19.97
2016-11-03T13:18:34.605Z,20.02
2016-11-03T13:19:46.069Z,20.09
2016-11-03T13:20:58.120Z,20.22
2016-11-03T13:22:11.260Z,20.19
2016-11-03T13:23:23.787Z,20.08
2016-11-03T13:24:36.866Z,20.09
2016-11-03T13:25:50.469Z,20.11
2016-11-03T13:27:04.103Z,20.02
2016-11-03T13:28:17.233Z,19.96
2016-11-03T13:29:29.794Z,19.99
2016-11-03T13:30:41.775Z,19.92
2016-11-03T13:31:54.823Z,19.9
2016-11-03T13:33:08.395Z,19.87
2016-11-03T13:34:21.453Z,19.93
2016-11-03T13:35:33.942Z,19.99
2016-11-03T13:36:47.243Z,20.08
2016-11-03T13:38:00.297Z,20.18
2016-11-03T13:39:13.364Z,20.15
2016-11-03T13:40:26.423Z,20.25
2016-11-03T13:41:39.403Z,20.25
2016-11-03T13:42:52.021Z,20.33
2016-11-03T13:44:05.670Z,20.26
2016-11-03T13:45:19.365Z,20.19
2016-11-03T13:46:32.422Z,20.15
2016-11-03T13:47:46.096Z,20.15
2016-11-03T13:48:58.645Z,20.11
2016-11-03T13:50:12.231Z,20.09
2016-11-03T13:51:25.322Z,20.02
2016-11-03T13:52:38.991Z,20.04
2016-11-03T13:53:50.994Z,20.07
2016-11-03T13:55:03.545Z,20.09
2016-11-03T13:56:17.197Z,20.09
2016-11-03T13:57:30.355Z,20.05
2016-11-03T13:58:43.447Z,20.05
2016-11-03T13:59:57.078Z,20.12
2016-11-03T14:01:10.716Z,20.07
2016-11-03T14:02:23.808Z,20.07
2016-11-03T14:03:36.944Z,20.12
2016-11-03T14:04:50.067Z,20.12
2016-11-03T14:06:03.794Z,20.17
2016-11-03T14:07:16.403Z,20.22
2016-11-03T14:08:29.504Z,20.19
2016-11-03T14:09:43.129Z,20.3
2016-11-03T14:10:56.809Z,20.22
2016-11-03T14:12:09.407Z,20.18
2016-11-03T14:13:23.046Z,20.19
2016-11-03T14:14:36.671Z,20.22
2016-11-03T14:15:48.644Z,20.22
2016-11-03T14:17:02.263Z,20.17
2016-11-03T14:18:15.907Z,20.15
2016-11-03T14:19:29.535Z,20.11
2016-11-03T14:20:42.147Z,20.14
2016-11-03T14:21:55.718Z,20.04
2016-11-03T14:23:08.850Z,19.94
2016-11-03T14:24:21.924Z,19.96
2016-11-03T14:25:34.984Z,20.08
2016-11-03T14:26:47.013Z,20.11
2016-11-03T14:28:00.652Z,20.12
2016-11-03T14:29:14.285Z,20.15
2016-11-03T14:30:27.289Z,20.07
2016-11-03T14:31:40.992Z,20.18
2016-11-03T14:32:54.085Z,20.11
2016-11-03T14:34:06.656Z,20.17
2016-11-03T14:35:20.408Z,20.08
2016-11-03T14:36:34.076Z,20.14
2016-11-03T14:37:47.279Z,20.15
2016-11-03T14:39:00.922Z,20.08
2016-11-03T14:40:14.208Z,20.05
2016-11-03T14:41:27.232Z,19.97
2016-11-03T14:42:40.286Z,19.93
2016-11-03T14:43:53.936Z,19.94
2016-11-03T14:45:07.639Z,19.94
2016-11-03T14:46:20.850Z,20
2016-11-03T14:47:34.120Z,20.02
2016-11-03T14:48:45.669Z,20.05
2016-11-03T14:49:58.793Z,20.11
2016-11-03T14:51:12.495Z,20.07
2016-11-03T14:52:26.084Z,20.04
2016-11-03T14:53:39.767Z,20.05
2016-11-03T14:54:52.862Z,20.17
2016-11-03T14:56:05.957Z,20.09
2016-11-03T14:57:17.454Z,20.18
2016-11-03T14:58:30.129Z,20.19
2016-11-03T14:59:42.273Z,20.23
2016-11-03T15:00:54.870Z,20.17
2016-11-03T15:02:07.530Z,20.12
2016-11-03T15:03:20.625Z,20.12
2016-11-03T15:04:34.347Z,20.07
2016-11-03T15:05:48.360Z,20.04
2016-11-03T15:07:02.082Z,20.08
2016-11-03T15:08:15.645Z,20.02
2016-11-03T15:09:29.338Z,19.94
2016-11-03T15:10:42.448Z,19.81
2016-11-03T15:11:56.161Z,19.77
2016-11-03T15:13:09.266Z,19.81
2016-11-03T15:14:22.394Z,19.79
2016-11-03T15:15:35.552Z,19.74
2016-11-03T15:16:48.620Z,19.77
2016-11-03T15:18:00.630Z,19.81
2016-11-03T15:19:14.280Z,19.7
2016-11-03T15:20:27.456Z,19.63
2016-11-03T15:21:40.573Z,19.59
2016-11-03T15:22:54.214Z,19.62
2016-11-03T15:24:07.375Z,19.63
2016-11-03T15:25:19.946Z,19.64
2016-11-03T15:26:33.310Z,19.68
2016-11-03T15:27:46.452Z,19.6
2016-11-03T15:28:59.034Z,19.72
2016-11-03T15:30:12.631Z,19.72
2016-11-03T15:31:26.223Z,19.77
2016-11-03T15:32:39.305Z,19.53
2016-11-03T15:33:51.877Z,19.49
2016-11-03T15:35:05.039Z,19.5
2016-11-03T15:36:17.719Z,19.52
2016-11-03T15:37:30.833Z,19.54
2016-11-03T15:38:42.842Z,19.53
2016-11-03T15:39:56.505Z,19.5
2016-11-03T15:41:09.526Z,19.5
2016-11-03T15:42:23.145Z,19.5
2016-11-03T15:43:35.220Z,19.49